Time;durP1;ratioP1;P1;durP2;ratioP2;P2;SDS_P1;SDS_P2;PMS_P1;PMS_P2;Temp;Humidity;BMP_temperature;BMP_pressure;BME280_temperature;BME280_humidity;BME280_pressure;Samples;Min_cycle;Max_cycle;Signal;HPM_P1;HPM_P2
2022/05/06 00:01:32;;;;;;;0.10;0.10;;;;;;;;;;5062648;28;20239;-79
2022/05/06 00:03:59;;;;;;;0.10;0.10;;;;;;;;;;5067365;28;20208;-77
2022/05/06 00:06:25;;;;;;;0.10;0.10;;;;;;;;;;5062277;28;20239;-73
2022/05/06 00:08:51;;;;;;;0.10;0.10;;;;;;;;;;5067688;28;20453;-75
2022/05/06 00:11:17;;;;;;;0.10;0.10;;;;;;;;;;5061058;28;20247;-73
2022/05/06 00:13:44;;;;;;;0.10;0.10;;;;;;;;;;5068242;28;20298;-73
2022/05/06 00:16:10;;;;;;;0.10;0.10;;;;;;;;;;5060100;28;20247;-73
2022/05/06 00:18:38;;;;;;;0.10;0.10;;;;;;;;;;5069405;28;20230;-73
2022/05/06 00:21:04;;;;;;;0.10;0.10;;;;;;;;;;5059235;28;20561;-73
2022/05/06 00:23:30;;;;;;;0.00;0.00;;;;;;;;;;5070244;28;20488;-73
2022/05/06 00:25:57;;;;;;;0.10;0.10;;;;;;;;;;5058637;28;20247;-72
2022/05/06 00:28:23;;;;;;;0.10;0.10;;;;;;;;;;5070769;28;20218;-73
2022/05/06 00:30:49;;;;;;;0.10;0.10;;;;;;;;;;5057358;28;20240;-73
2022/05/06 00:33:16;;;;;;;0.10;0.10;;;;;;;;;;5071889;28;20456;-73
2022/05/06 00:35:43;;;;;;;0.53;0.53;;;;;;;;;;5056185;28;20546;-74
2022/05/06 00:38:09;;;;;;;0.10;0.10;;;;;;;;;;5072873;28;20204;-73
2022/05/06 00:40:36;;;;;;;0.10;0.10;;;;;;;;;;5055827;28;20239;-72
2022/05/06 00:43:02;;;;;;;0.10;0.10;;;;;;;;;;5073708;28;20250;-73
2022/05/06 00:45:32;;;;;;;0.10;0.10;;;;;;;;;;5056713;28;20246;-73
2022/05/06 00:47:59;;;;;;;0.10;0.10;;;;;;;;;;5077932;28;20208;-73
2022/05/06 00:50:25;;;;;;;0.10;0.10;;;;;;;;;;5057834;28;20245;-73
2022/05/06 00:52:54;;;;;;;0.10;0.10;;;;;;;;;;5078403;28;20207;-73
2022/05/06 00:55:22;;;;;;;0.10;0.10;;;;;;;;;;5057305;28;20378;-72
2022/05/06 00:57:48;;;;;;;0.10;0.10;;;;;;;;;;5078782;28;20204;-72
2022/05/06 01:00:21;;;;;;;0.10;0.10;;;;;;;;;;5056316;28;20243;-73
2022/05/06 01:02:47;;;;;;;0.10;0.10;;;;;;;;;;5078781;28;20265;-72
2022/05/06 01:05:14;;;;;;;0.10;0.10;;;;;;;;;;5056177;28;20239;-73
2022/05/06 01:07:41;;;;;;;0.00;0.00;;;;;;;;;;5079968;28;20197;-73
2022/05/06 01:10:09;;;;;;;0.10;0.10;;;;;;;;;;5055226;28;20229;-74
2022/05/06 01:12:36;;;;;;;0.10;0.10;;;;;;;;;;5080726;28;20211;-73
2022/05/06 01:15:02;;;;;;;0.10;0.10;;;;;;;;;;5065591;28;20270;-73
2022/05/06 01:17:29;;;;;;;0.10;0.10;;;;;;;;;;5070685;28;20239;-72
2022/05/06 01:19:55;;;;;;;0.10;0.10;;;;;;;;;;5065596;28;20197;-72
2022/05/06 01:22:22;;;;;;;0.10;0.10;;;;;;;;;;5070649;28;20240;-72
2022/05/06 01:24:49;;;;;;;6.07;5.77;;;;;;;;;;5065362;28;20249;-72
2022/05/06 01:27:18;;;;;;;0.10;0.10;;;;;;;;;;5070489;28;20247;-73
2022/05/06 01:29:46;;;;;;;0.10;0.10;;;;;;;;;;5065363;28;20231;-73
2022/05/06 01:32:12;;;;;;;0.00;0.00;;;;;;;;;;5070676;28;20302;-73
2022/05/06 01:34:40;;;;;;;0.10;0.10;;;;;;;;;;5065539;28;20382;-72
2022/05/06 01:37:08;;;;;;;0.10;0.10;;;;;;;;;;5070439;28;20310;-73
2022/05/06 01:39:36;;;;;;;0.10;0.10;;;;;;;;;;5065519;28;20214;-73
2022/05/06 01:42:05;;;;;;;0.10;0.10;;;;;;;;;;5069972;28;20298;-73
2022/05/06 01:44:35;;;;;;;0.10;0.10;;;;;;;;;;5064843;28;20216;-72
2022/05/06 01:47:03;;;;;;;0.10;0.10;;;;;;;;;;5069842;28;20245;-73
2022/05/06 01:49:31;;;;;;;0.10;0.10;;;;;;;;;;5064808;28;20223;-73
2022/05/06 01:51:58;;;;;;;0.10;0.10;;;;;;;;;;5069269;28;20242;-73
2022/05/06 01:54:25;;;;;;;0.10;0.10;;;;;;;;;;5065869;28;20212;-72
2022/05/06 01:56:52;;;;;;;0.10;0.10;;;;;;;;;;5066911;28;20551;-72
2022/05/06 01:59:19;;;;;;;0.10;0.10;;;;;;;;;;5066278;28;20255;-73
2022/05/06 02:01:45;;;;;;;0.10;0.10;;;;;;;;;;5067282;28;20245;-72
2022/05/06 02:06:55;;;;;;;0.10;0.10;;;;;;;;;;5068626;28;20282;-73
2022/05/06 02:09:21;;;;;;;0.10;0.10;;;;;;;;;;5065701;28;20251;-72
2022/05/06 02:11:48;;;;;;;0.10;0.10;;;;;;;;;;5067694;28;20247;-72
2022/05/06 02:14:16;;;;;;;0.10;0.10;;;;;;;;;;5066549;28;20234;-73
2022/05/06 02:16:42;;;;;;;0.10;0.10;;;;;;;;;;5066850;28;20258;-73
2022/05/06 02:19:08;;;;;;;0.10;0.10;;;;;;;;;;5067057;28;20200;-72
2022/05/06 02:21:35;;;;;;;0.10;0.10;;;;;;;;;;5065623;28;20281;-72
2022/05/06 02:24:01;;;;;;;0.10;0.10;;;;;;;;;;5068181;28;20537;-73
2022/05/06 02:26:27;;;;;;;0.10;0.10;;;;;;;;;;5064477;28;20246;-71
2022/05/06 02:28:54;;;;;;;0.10;0.10;;;;;;;;;;5068839;28;20234;-73
2022/05/06 02:34:05;;;;;;;0.10;0.10;;;;;;;;;;5067712;28;20194;-73
2022/05/06 02:36:31;;;;;;;0.10;0.10;;;;;;;;;;5065030;28;20287;-73
2022/05/06 02:38:58;;;;;;;0.10;0.10;;;;;;;;;;5068620;28;20408;-72
2022/05/06 02:41:24;;;;;;;0.10;0.10;;;;;;;;;;5063991;28;20292;-72
2022/05/06 02:43:50;;;;;;;0.10;0.10;;;;;;;;;;5069409;28;20395;-72
2022/05/06 02:46:16;;;;;;;0.10;0.10;;;;;;;;;;5062877;28;20246;-73
2022/05/06 02:48:44;;;;;;;0.10;0.10;;;;;;;;;;5069800;28;20248;-73
2022/05/06 02:51:11;;;;;;;0.10;0.10;;;;;;;;;;5062089;28;20334;-73
2022/05/06 02:53:37;;;;;;;0.10;0.10;;;;;;;;;;5070820;28;20398;-73
2022/05/06 02:56:04;;;;;;;0.10;0.10;;;;;;;;;;5061229;28;20250;-71
2022/05/06 02:58:30;;;;;;;0.10;0.10;;;;;;;;;;5071698;28;20206;-72
2022/05/06 03:00:56;;;;;;;0.10;0.10;;;;;;;;;;5060048;28;20239;-73
2022/05/06 03:03:22;;;;;;;0.10;0.10;;;;;;;;;;5072085;28;20207;-72
2022/05/06 03:05:50;;;;;;;0.10;0.10;;;;;;;;;;5058185;28;20242;-71
2022/05/06 03:08:16;;;;;;;0.00;0.00;;;;;;;;;;5073456;28;20399;-73
2022/05/06 03:10:43;;;;;;;0.10;0.10;;;;;;;;;;5057830;28;20241;-71
2022/05/06 03:13:09;;;;;;;0.10;0.10;;;;;;;;;;5073860;28;20258;-73
2022/05/06 03:15:35;;;;;;;0.10;0.10;;;;;;;;;;5056958;28;20432;-72
2022/05/06 03:18:02;;;;;;;0.10;0.10;;;;;;;;;;5075077;28;20207;-72
2022/05/06 03:20:28;;;;;;;0.27;0.27;;;;;;;;;;5056067;28;20243;-73
2022/05/06 03:22:56;;;;;;;0.07;0.07;;;;;;;;;;5076085;28;20411;-72
2022/05/06 03:25:22;;;;;;;0.10;0.10;;;;;;;;;;5055244;28;20254;-73
2022/05/06 03:28:02;;;;;;;0.10;0.10;;;;;;;;;;5076461;28;20258;-72
2022/05/06 03:30:30;;;;;;;0.10;0.10;;;;;;;;;;5055250;28;20242;-73
2022/05/06 03:32:56;;;;;;;0.10;0.10;;;;;;;;;;5075838;28;20260;-73
2022/05/06 03:35:22;;;;;;;0.10;0.10;;;;;;;;;;5054813;28;20253;-73
2022/05/06 03:37:49;;;;;;;0.10;0.10;;;;;;;;;;5076096;28;20207;-73
2022/05/06 03:40:16;;;;;;;0.10;0.10;;;;;;;;;;5053803;28;20203;-73
2022/05/06 03:42:43;;;;;;;0.10;0.10;;;;;;;;;;5077299;28;20211;-72
2022/05/06 03:45:10;;;;;;;0.10;0.10;;;;;;;;;;5052967;28;20205;-71
2022/05/06 03:47:36;;;;;;;0.10;0.10;;;;;;;;;;5077949;28;20241;-72
2022/05/06 03:52:47;;;;;;;0.10;0.10;;;;;;;;;;5062882;28;20203;-72
2022/05/06 03:55:14;;;;;;;0.10;0.10;;;;;;;;;;5053359;28;20521;-72
2022/05/06 03:57:42;;;;;;;0.10;0.10;;;;;;;;;;5077089;28;20200;-74
2022/05/06 04:00:09;;;;;;;0.10;0.10;;;;;;;;;;5052664;28;20200;-71
2022/05/06 04:02:36;;;;;;;0.10;0.10;;;;;;;;;;5077790;28;20211;-72
2022/05/06 04:05:02;;;;;;;0.10;0.10;;;;;;;;;;5062387;28;20359;-72
2022/05/06 04:07:28;;;;;;;0.10;0.10;;;;;;;;;;5067727;28;20250;-72
2022/05/06 04:09:54;;;;;;;0.10;0.10;;;;;;;;;;5062631;28;20258;-72
2022/05/06 04:12:22;;;;;;;0.10;0.10;;;;;;;;;;5067711;28;20246;-73
2022/05/06 04:14:50;;;;;;;0.10;0.10;;;;;;;;;;5062849;28;20201;-73
2022/05/06 04:17:17;;;;;;;0.10;0.10;;;;;;;;;;5067665;28;20249;-72
2022/05/06 04:23:29;;;;;;;0.10;0.10;;;;;;;;;;5063583;28;20202;-73
2022/05/06 04:25:14;;;;;;;0.10;0.10;;;;;;;;;;5057086;28;20194;-73
2022/05/06 04:27:41;;;;;;;0.10;0.10;;;;;;;;;;5081191;28;20271;-72
2022/05/06 04:30:09;;;;;;;0.10;0.10;;;;;;;;;;5056289;28;20238;-72
2022/05/06 04:32:35;;;;;;;0.10;0.10;;;;;;;;;;5081454;28;20209;-73
2022/05/06 04:35:04;;;;;;;0.10;0.10;;;;;;;;;;5066631;28;20417;-72
2022/05/06 04:37:30;;;;;;;0.10;0.10;;;;;;;;;;5022326;28;20273;-73
2022/05/06 04:39:57;;;;;;;0.10;0.10;;;;;;;;;;5066203;28;20205;-72
2022/05/06 04:42:24;;;;;;;0.10;0.10;;;;;;;;;;5071476;28;20434;-72
2022/05/06 04:44:50;;;;;;;0.10;0.10;;;;;;;;;;5066319;28;20494;-73
2022/05/06 04:47:17;;;;;;;0.10;0.10;;;;;;;;;;5071434;28;20243;-73
2022/05/06 04:49:44;;;;;;;0.10;0.10;;;;;;;;;;5065965;28;20229;-74
2022/05/06 04:52:10;;;;;;;0.10;0.10;;;;;;;;;;5071547;28;20268;-73
2022/05/06 04:54:37;;;;;;;0.10;0.10;;;;;;;;;;5066057;28;20215;-72
2022/05/06 04:57:04;;;;;;;0.10;0.10;;;;;;;;;;5070701;28;20302;-73
2022/05/06 04:59:30;;;;;;;0.10;0.10;;;;;;;;;;5065975;28;20208;-72
2022/05/06 05:01:56;;;;;;;0.10;0.10;;;;;;;;;;5069555;28;20513;-72
2022/05/06 05:04:27;;;;;;;0.10;0.10;;;;;;;;;;5067056;28;20510;-74
2022/05/06 05:06:54;;;;;;;0.10;0.10;;;;;;;;;;5069152;28;20252;-72
2022/05/06 05:09:20;;;;;;;0.10;0.10;;;;;;;;;;5067342;28;20435;-73
2022/05/06 05:11:47;;;;;;;0.10;0.10;;;;;;;;;;5068286;28;20248;-73
2022/05/06 05:14:13;;;;;;;0.10;0.10;;;;;;;;;;5067931;28;20205;-74
2022/05/06 05:16:39;;;;;;;0.10;0.10;;;;;;;;;;5067508;28;20238;-73
2022/05/06 05:19:06;;;;;;;0.10;0.10;;;;;;;;;;5068730;28;20556;-73
2022/05/06 05:21:34;;;;;;;0.10;0.10;;;;;;;;;;5066070;28;20246;-73
2022/05/06 05:24:00;;;;;;;0.10;0.10;;;;;;;;;;5069580;28;20215;-73
2022/05/06 05:26:26;;;;;;;0.10;0.10;;;;;;;;;;5065537;28;20298;-73
2022/05/06 05:28:53;;;;;;;0.10;0.10;;;;;;;;;;5070447;28;20253;-72
2022/05/06 05:31:19;;;;;;;0.10;0.10;;;;;;;;;;5063949;28;20453;-73
2022/05/06 05:33:45;;;;;;;0.10;0.10;;;;;;;;;;5071607;28;20424;-72
2022/05/06 05:36:12;;;;;;;0.10;0.10;;;;;;;;;;5063215;28;20242;-73
2022/05/06 05:38:39;;;;;;;0.10;0.10;;;;;;;;;;5072172;28;20207;-74
2022/05/06 05:41:06;;;;;;;0.10;0.10;;;;;;;;;;5062630;28;20235;-73
2022/05/06 05:49:14;;;;;;;0.10;0.10;;;;;;;;;;5004090;28;20611;-73
2022/05/06 05:51:41;;;;;;;0.10;0.10;;;;;;;;;;5026784;28;20250;-72
2022/05/06 05:54:08;;;;;;;0.10;0.10;;;;;;;;;;5064870;28;20211;-73
2022/05/06 05:56:37;;;;;;;0.10;0.10;;;;;;;;;;5066149;28;20583;-73
2022/05/06 05:59:04;;;;;;;0.10;0.10;;;;;;;;;;5068479;28;20290;-73
2022/05/06 06:01:30;;;;;;;0.10;0.10;;;;;;;;;;5064957;28;20238;-73
2022/05/06 06:03:56;;;;;;;0.10;0.10;;;;;;;;;;5069507;28;20209;-74
2022/05/06 06:06:23;;;;;;;0.10;0.10;;;;;;;;;;5063950;28;20337;-74
2022/05/06 06:08:49;;;;;;;0.10;0.10;;;;;;;;;;5070002;28;20256;-75
2022/05/06 06:11:17;;;;;;;0.00;0.00;;;;;;;;;;5062847;28;20306;-77
2022/05/06 06:13:43;;;;;;;0.10;0.10;;;;;;;;;;5070695;28;20251;-75
2022/05/06 06:16:10;;;;;;;0.00;0.00;;;;;;;;;;5062153;28;20276;-73
2022/05/06 06:18:36;;;;;;;0.10;0.10;;;;;;;;;;5071462;28;20238;-73
2022/05/06 06:21:02;;;;;;;0.00;0.00;;;;;;;;;;5061034;28;20480;-74
2022/05/06 06:23:30;;;;;;;0.10;0.10;;;;;;;;;;5072092;28;20204;-75
2022/05/06 06:25:56;;;;;;;0.10;0.10;;;;;;;;;;5060510;28;20239;-74
2022/05/06 06:28:24;;;;;;;0.10;0.10;;;;;;;;;;5072991;28;20209;-75
2022/05/06 06:30:50;;;;;;;0.10;0.10;;;;;;;;;;5059252;28;20250;-75
2022/05/06 06:33:16;;;;;;;0.10;0.10;;;;;;;;;;5073902;28;20205;-75
2022/05/06 06:35:43;;;;;;;0.10;0.10;;;;;;;;;;5058494;28;20257;-75
2022/05/06 06:38:09;;;;;;;0.10;0.10;;;;;;;;;;5074419;28;20538;-74
2022/05/06 06:40:36;;;;;;;0.10;0.10;;;;;;;;;;5057544;28;20301;-75
2022/05/06 06:43:02;;;;;;;0.10;0.10;;;;;;;;;;5074797;28;20204;-74
2022/05/06 06:45:32;;;;;;;0.10;0.10;;;;;;;;;;5056928;28;20248;-72
2022/05/06 06:47:58;;;;;;;0.10;0.10;;;;;;;;;;5075537;28;20511;-73
2022/05/06 06:50:25;;;;;;;0.10;0.10;;;;;;;;;;5056182;28;20441;-74
2022/05/06 06:52:51;;;;;;;0.10;0.10;;;;;;;;;;5076482;28;20515;-74
2022/05/06 06:55:17;;;;;;;0.10;0.10;;;;;;;;;;5054868;28;20207;-72
2022/05/06 06:57:44;;;;;;;0.10;0.10;;;;;;;;;;5077844;28;20239;-74
2022/05/06 07:00:11;;;;;;;0.10;0.10;;;;;;;;;;5053868;28;20233;-73
2022/05/06 07:02:40;;;;;;;0.10;0.10;;;;;;;;;;5078559;28;20235;-75
2022/05/06 07:05:06;;;;;;;0.00;0.00;;;;;;;;;;5063975;28;20206;-74
2022/05/06 07:13:00;;;;;;;0.10;0.10;;;;;;;;;;5076653;28;20239;-74
2022/05/06 07:15:29;;;;;;;0.10;0.10;;;;;;;;;;5056040;28;20248;-74
2022/05/06 07:17:57;;;;;;;0.10;0.10;;;;;;;;;;5075904;28;20208;-73
2022/05/06 07:20:24;;;;;;;0.10;0.10;;;;;;;;;;5054569;28;20272;-74
2022/05/06 07:22:50;;;;;;;0.10;0.10;;;;;;;;;;5077277;28;20210;-74
2022/05/06 07:25:16;;;;;;;0.10;0.10;;;;;;;;;;5054756;28;20206;-75
2022/05/06 07:27:43;;;;;;;0.00;0.00;;;;;;;;;;5077361;28;20211;-74
2022/05/06 07:30:10;;;;;;;0.10;0.10;;;;;;;;;;5053668;28;20268;-74
2022/05/06 07:32:37;;;;;;;0.10;0.10;;;;;;;;;;5078235;28;20378;-75
2022/05/06 07:35:07;;;;;;;0.10;0.10;;;;;;;;;;5063675;28;20203;-75
2022/05/06 07:37:35;;;;;;;0.10;0.10;;;;;;;;;;5035133;28;20231;-74
2022/05/06 07:40:01;;;;;;;0.10;0.10;;;;;;;;;;5063228;28;20213;-75
2022/05/06 07:42:28;;;;;;;0.05;0.05;;;;;;;;;;5068226;28;20240;-75
2022/05/06 07:44:55;;;;;;;0.10;0.10;;;;;;;;;;5063241;28;20206;-75
2022/05/06 07:47:21;;;;;;;0.00;0.00;;;;;;;;;;5068116;28;20311;-75
2022/05/06 07:49:48;;;;;;;0.10;0.10;;;;;;;;;;5063400;28;20499;-74
2022/05/06 07:52:16;;;;;;;0.00;0.00;;;;;;;;;;5068164;28;20510;-75
2022/05/06 07:54:42;;;;;;;0.10;0.10;;;;;;;;;;5062896;28;20295;-76
2022/05/06 07:57:08;;;;;;;0.10;0.10;;;;;;;;;;5068161;28;20307;-75
2022/05/06 07:59:35;;;;;;;0.10;0.10;;;;;;;;;;5062759;28;20240;-75
2022/05/06 08:04:48;;;;;;;0.00;0.00;;;;;;;;;;5062922;28;20235;-75
2022/05/06 08:07:16;;;;;;;0.00;0.00;;;;;;;;;;5068101;28;20243;-75
2022/05/06 08:09:43;;;;;;;0.10;0.10;;;;;;;;;;5062901;28;20206;-74
2022/05/06 08:12:10;;;;;;;0.10;0.10;;;;;;;;;;5067455;28;20463;-75
2022/05/06 08:14:36;;;;;;;0.10;0.10;;;;;;;;;;5062894;28;20441;-74
2022/05/06 08:17:03;;;;;;;0.00;0.00;;;;;;;;;;5067203;28;20265;-75
2022/05/06 08:19:30;;;;;;;0.00;0.00;;;;;;;;;;5063084;28;20299;-74
2022/05/06 08:21:56;;;;;;;0.10;0.10;;;;;;;;;;5066816;28;20318;-74
2022/05/06 08:24:24;;;;;;;0.00;0.00;;;;;;;;;;5063818;28;20281;-76
2022/05/06 08:26:50;;;;;;;0.00;0.00;;;;;;;;;;5065757;28;20601;-75
2022/05/06 08:29:17;;;;;;;0.10;0.10;;;;;;;;;;5064667;28;20201;-75
2022/05/06 08:31:44;;;;;;;0.00;0.00;;;;;;;;;;5064793;28;20243;-74
2022/05/06 08:34:11;;;;;;;0.10;0.10;;;;;;;;;;5065361;28;20213;-74
2022/05/06 08:36:38;;;;;;;0.00;0.00;;;;;;;;;;5064125;28;20419;-75
2022/05/06 08:39:05;;;;;;;0.00;0.00;;;;;;;;;;5066041;28;20209;-75
2022/05/06 08:41:34;;;;;;;0.10;0.10;;;;;;;;;;5063330;28;20235;-74
2022/05/06 08:50:50;;;;;;;0.00;0.00;;;;;;;;;;5066310;28;20226;-73
2022/05/06 08:52:31;;;;;;;0.10;0.10;;;;;;;;;;4988294;28;20428;-75
2022/05/06 08:54:57;;;;;;;0.00;0.00;;;;;;;;;;5029712;28;20206;-74
2022/05/06 08:57:25;;;;;;;0.00;0.00;;;;;;;;;;5047553;28;20264;-74
2022/05/06 08:59:52;;;;;;;0.05;0.05;;;;;;;;;;5042412;28;20202;-74
2022/05/06 09:02:18;;;;;;;0.10;0.10;;;;;;;;;;5047178;28;20238;-75
2022/05/06 09:04:45;;;;;;;0.10;0.10;;;;;;;;;;5042405;28;20206;-75
2022/05/06 09:07:19;;;;;;;0.05;0.05;;;;;;;;;;5050178;28;20246;-76
2022/05/06 09:10:10;;;;;;;0.08;0.08;;;;;;;;;;5046301;28;20416;-75
2022/05/06 09:12:44;;;;;;;0.00;0.00;;;;;;;;;;5037982;28;20217;-74
2022/05/06 09:17:56;;;;;;;0.08;0.08;;;;;;;;;;5077946;28;20277;-78
2022/05/06 09:20:23;;;;;;;0.08;0.08;;;;;;;;;;5057216;28;20207;-74
2022/05/06 09:22:51;;;;;;;0.00;0.00;;;;;;;;;;5078619;28;20206;-76
2022/05/06 09:25:36;;;;;;;0.10;0.10;;;;;;;;;;5056559;28;20206;-75
2022/05/06 09:28:04;;;;;;;0.10;0.10;;;;;;;;;;5077045;28;20207;-76
2022/05/06 09:30:31;;;;;;;0.00;0.00;;;;;;;;;;5057884;28;20248;-74
2022/05/06 09:32:57;;;;;;;0.10;0.10;;;;;;;;;;5077537;28;20461;-77
2022/05/06 09:35:26;;;;;;;0.00;0.00;;;;;;;;;;5057004;28;20207;-72
2022/05/06 09:37:53;;;;;;;0.10;0.10;;;;;;;;;;5078123;28;20247;-72
2022/05/06 09:40:20;;;;;;;0.03;0.03;;;;;;;;;;5057174;28;20245;-72
2022/05/06 09:42:47;;;;;;;0.00;0.00;;;;;;;;;;5079101;28;20306;-73
2022/05/06 09:45:15;;;;;;;0.00;0.00;;;;;;;;;;5056210;28;20249;-72
2022/05/06 09:47:42;;;;;;;0.00;0.00;;;;;;;;;;5079521;28;20322;-72
2022/05/06 09:50:09;;;;;;;0.00;0.00;;;;;;;;;;5055347;28;20214;-74
2022/05/06 09:52:36;;;;;;;0.00;0.00;;;;;;;;;;5080184;28;20228;-73
2022/05/06 09:55:05;;;;;;;0.10;0.10;;;;;;;;;;5065177;28;20205;-74
2022/05/06 09:57:32;;;;;;;0.03;0.03;;;;;;;;;;5037127;28;20274;-72
2022/05/06 09:59:58;;;;;;;0.00;0.00;;;;;;;;;;5065300;28;20240;-73
2022/05/06 10:02:25;;;;;;;0.00;0.00;;;;;;;;;;5070415;28;20283;-73
2022/05/06 10:04:52;;;;;;;0.00;0.00;;;;;;;;;;5064981;28;20209;-72
2022/05/06 10:07:26;;;;;;;0.00;0.00;;;;;;;;;;5070113;28;20240;-80
2022/05/06 10:09:57;;;;;;;0.08;0.08;;;;;;;;;;5064746;28;20489;-75
2022/05/06 10:12:24;;;;;;;0.10;0.10;;;;;;;;;;5069477;28;20238;-71
2022/05/06 10:14:51;;;;;;;0.03;0.03;;;;;;;;;;5064799;28;20504;-75
2022/05/06 10:17:45;;;;;;;0.00;0.00;;;;;;;;;;5068656;28;20240;-72
2022/05/06 10:20:23;;;;;;;0.00;0.00;;;;;;;;;;5053957;28;20213;-72
2022/05/06 10:22:59;;;;;;;0.00;0.00;;;;;;;;;;5078137;28;20225;-74
2022/05/06 10:25:47;;;;;;;0.10;0.10;;;;;;;;;;5056607;28;20248;-73
2022/05/06 10:34:17;;;;;;;0.00;0.00;;;;;;;;;;5066371;28;20245;-73
2022/05/06 10:36:45;;;;;;;0.00;0.00;;;;;;;;;;5066291;28;20242;-75
2022/05/06 10:39:18;;;;;;;0.00;0.00;;;;;;;;;;5066759;28;20253;-75
2022/05/06 10:41:59;;;;;;;0.03;0.03;;;;;;;;;;5066194;28;20477;-75
2022/05/06 10:44:32;;;;;;;0.00;0.00;;;;;;;;;;5065032;28;20199;-75
2022/05/06 10:46:58;;;;;;;0.00;0.00;;;;;;;;;;5067971;28;20608;-75
2022/05/06 10:49:49;;;;;;;0.10;0.10;;;;;;;;;;5064848;28;20206;-75
2022/05/06 10:52:35;;;;;;;0.00;0.00;;;;;;;;;;5069373;28;20234;-75
2022/05/06 10:55:04;;;;;;;0.00;0.00;;;;;;;;;;5063924;28;20207;-75
2022/05/06 10:57:31;;;;;;;0.00;0.00;;;;;;;;;;5068679;28;20259;-76
2022/05/06 10:59:58;;;;;;;0.00;0.00;;;;;;;;;;5063301;28;20239;-76
2022/05/06 11:02:25;;;;;;;0.03;0.03;;;;;;;;;;5068600;28;20243;-76
2022/05/06 11:04:52;;;;;;;0.10;0.10;;;;;;;;;;5063099;28;20211;-75
2022/05/06 11:07:18;;;;;;;0.00;0.00;;;;;;;;;;5068353;28;20245;-75
2022/05/06 11:09:45;;;;;;;0.00;0.00;;;;;;;;;;5064059;28;20260;-75
2022/05/06 11:12:28;;;;;;;0.00;0.00;;;;;;;;;;5068851;28;20296;-76
2022/05/06 11:14:54;;;;;;;0.00;0.00;;;;;;;;;;5064015;28;20405;-75
2022/05/06 11:17:22;;;;;;;0.00;0.00;;;;;;;;;;5068421;28;20246;-77
2022/05/06 11:19:48;;;;;;;0.00;0.00;;;;;;;;;;5063949;28;20294;-77
2022/05/06 11:22:15;;;;;;;0.00;0.00;;;;;;;;;;5068276;28;20283;-76
2022/05/06 11:24:41;;;;;;;0.00;0.00;;;;;;;;;;5063297;28;20244;-77
2022/05/06 11:27:17;;;;;;;0.00;0.00;;;;;;;;;;5068538;28;20288;-78
2022/05/06 11:29:47;;;;;;;0.00;0.00;;;;;;;;;;5063249;28;20206;-75
2022/05/06 11:32:14;;;;;;;0.10;0.10;;;;;;;;;;5068418;28;20245;-74
2022/05/06 11:34:45;;;;;;;0.00;0.00;;;;;;;;;;5063680;28;20261;-77
2022/05/06 11:37:14;;;;;;;0.00;0.00;;;;;;;;;;5068189;28;20245;-76
2022/05/06 11:39:40;;;;;;;0.00;0.00;;;;;;;;;;5063145;28;20212;-76
2022/05/06 11:42:21;;;;;;;0.00;0.00;;;;;;;;;;5068422;28;20237;-76
2022/05/06 11:47:42;;;;;;;0.10;0.10;;;;;;;;;;5062798;28;20273;-75
2022/05/06 11:50:09;;;;;;;0.10;0.10;;;;;;;;;;5053096;28;20429;-75
2022/05/06 11:52:37;;;;;;;0.03;0.03;;;;;;;;;;5077214;28;20229;-77
2022/05/06 11:55:04;;;;;;;0.00;0.00;;;;;;;;;;5062603;28;20240;-75
2022/05/06 11:57:30;;;;;;;0.00;0.00;;;;;;;;;;5034710;28;20209;-77
2022/05/06 11:59:57;;;;;;;0.00;0.00;;;;;;;;;;5062894;28;20207;-76
2022/05/06 12:02:25;;;;;;;0.00;0.00;;;;;;;;;;5067770;28;20246;-77
2022/05/06 12:04:51;;;;;;;0.00;0.00;;;;;;;;;;5062421;28;20431;-76
2022/05/06 12:07:17;;;;;;;0.10;0.10;;;;;;;;;;5067339;28;20313;-75
2022/05/06 12:09:44;;;;;;;0.00;0.00;;;;;;;;;;5062736;28;20448;-75
2022/05/06 12:12:11;;;;;;;0.00;0.00;;;;;;;;;;5067588;28;20238;-77
2022/05/06 12:14:37;;;;;;;0.05;0.05;;;;;;;;;;5062232;28;20201;-76
2022/05/06 12:17:05;;;;;;;0.10;0.10;;;;;;;;;;5067393;28;20253;-76
2022/05/06 12:19:37;;;;;;;0.00;0.00;;;;;;;;;;5062439;28;20257;-75
2022/05/06 12:22:08;;;;;;;0.00;0.00;;;;;;;;;;5066635;28;20287;-75
2022/05/06 12:24:41;;;;;;;0.00;0.00;;;;;;;;;;5062443;28;20212;-75
2022/05/06 12:27:08;;;;;;;0.00;0.00;;;;;;;;;;5067564;28;20249;-77
2022/05/06 12:29:37;;;;;;;0.00;0.00;;;;;;;;;;5062306;28;20212;-76
2022/05/06 12:32:04;;;;;;;0.05;0.05;;;;;;;;;;5066264;28;20234;-75
2022/05/06 12:34:31;;;;;;;0.10;0.10;;;;;;;;;;5062413;28;20208;-77
2022/05/06 12:37:10;;;;;;;0.00;0.00;;;;;;;;;;5066427;28;20244;-77
2022/05/06 12:39:39;;;;;;;0.00;0.00;;;;;;;;;;5062114;28;20222;-76
2022/05/06 12:42:12;;;;;;;0.00;0.00;;;;;;;;;;5070288;28;20326;-75
2022/05/06 12:44:38;;;;;;;0.10;0.10;;;;;;;;;;5065658;28;20194;-76
2022/05/06 12:49:39;;;;;;;0.00;0.00;;;;;;;;;;5069288;28;20244;-76
2022/05/06 12:49:59;;;;;;;0.10;0.10;;;;;;;;;;5065651;28;20190;-77
2022/05/06 12:52:27;;;;;;;0.03;0.03;;;;;;;;;;5070888;28;20246;-76
2022/05/06 12:54:53;;;;;;;0.00;0.00;;;;;;;;;;5066370;28;20198;-75
2022/05/06 12:57:20;;;;;;;0.00;0.00;;;;;;;;;;5071548;28;20240;-75
2022/05/06 12:59:46;;;;;;;0.10;0.10;;;;;;;;;;5066354;28;20205;-76
2022/05/06 13:02:12;;;;;;;0.10;0.10;;;;;;;;;;5071201;28;20244;-77
2022/05/06 13:04:39;;;;;;;0.00;0.00;;;;;;;;;;5065917;28;20204;-76
2022/05/06 13:07:05;;;;;;;0.00;0.00;;;;;;;;;;5070113;28;20246;-78
2022/05/06 13:09:33;;;;;;;0.10;0.10;;;;;;;;;;5066847;28;20272;-76
2022/05/06 13:11:59;;;;;;;0.08;0.08;;;;;;;;;;5069673;28;20434;-75
2022/05/06 13:14:26;;;;;;;0.00;0.00;;;;;;;;;;5066443;28;20207;-76
2022/05/06 13:16:52;;;;;;;0.00;0.00;;;;;;;;;;5068570;28;20367;-75
2022/05/06 13:19:19;;;;;;;0.10;0.10;;;;;;;;;;5068227;28;20218;-76
2022/05/06 13:21:45;;;;;;;0.00;0.00;;;;;;;;;;5067905;28;20250;-75
2022/05/06 13:24:11;;;;;;;0.00;0.00;;;;;;;;;;5068925;28;20543;-76
2022/05/06 13:26:39;;;;;;;0.10;0.10;;;;;;;;;;5065857;28;20272;-78
2022/05/06 13:29:06;;;;;;;0.00;0.00;;;;;;;;;;5070533;28;20376;-76
2022/05/06 13:31:33;;;;;;;0.10;0.10;;;;;;;;;;5066458;28;20256;-77
2022/05/06 13:33:59;;;;;;;0.00;0.00;;;;;;;;;;5070141;28;20229;-79
2022/05/06 13:36:26;;;;;;;0.10;0.10;;;;;;;;;;5065013;28;20578;-76
2022/05/06 13:38:52;;;;;;;0.00;0.00;;;;;;;;;;5071208;28;20274;-77
2022/05/06 13:41:18;;;;;;;0.00;0.00;;;;;;;;;;5064491;28;20290;-76
2022/05/06 13:43:46;;;;;;;0.10;0.10;;;;;;;;;;5072012;28;20243;-76
2022/05/06 13:46:21;;;;;;;0.00;0.00;;;;;;;;;;5062414;28;20293;-77
2022/05/06 13:48:48;;;;;;;0.00;0.00;;;;;;;;;;5074526;28;20192;-78
2022/05/06 13:51:14;;;;;;;0.10;0.10;;;;;;;;;;5062177;28;20489;-77
2022/05/06 13:53:40;;;;;;;0.00;0.00;;;;;;;;;;5073545;28;20228;-76
2022/05/06 13:59:07;;;;;;;0.00;0.00;;;;;;;;;;5070120;28;20190;-77
2022/05/06 14:01:34;;;;;;;0.00;0.00;;;;;;;;;;5065406;28;20567;-78
2022/05/06 14:04:01;;;;;;;0.00;0.00;;;;;;;;;;5069595;28;20241;-76
2022/05/06 14:06:35;;;;;;;0.00;0.00;;;;;;;;;;5065342;28;20242;-78
2022/05/06 14:09:05;;;;;;;0.00;0.00;;;;;;;;;;5069087;28;20448;-76
2022/05/06 14:11:31;;;;;;;0.10;0.10;;;;;;;;;;5065901;28;20427;-77
2022/05/06 14:13:59;;;;;;;0.00;0.00;;;;;;;;;;5069409;28;20262;-77
2022/05/06 14:16:26;;;;;;;0.00;0.00;;;;;;;;;;5064719;28;20343;-76
2022/05/06 14:18:52;;;;;;;0.00;0.00;;;;;;;;;;5069722;28;20210;-76
2022/05/06 14:21:19;;;;;;;0.10;0.10;;;;;;;;;;5063556;28;20243;-77
2022/05/06 14:23:45;;;;;;;0.10;0.10;;;;;;;;;;5071450;28;20264;-77
2022/05/06 14:26:11;;;;;;;0.00;0.00;;;;;;;;;;5062622;28;20243;-78
2022/05/06 14:28:38;;;;;;;0.00;0.00;;;;;;;;;;5071547;28;20502;-78
2022/05/06 14:31:05;;;;;;;0.10;0.10;;;;;;;;;;5061747;28;20261;-75
2022/05/06 14:33:32;;;;;;;0.00;0.00;;;;;;;;;;5072598;28;20419;-76
2022/05/06 14:35:58;;;;;;;0.00;0.00;;;;;;;;;;5061379;28;20241;-79
2022/05/06 14:38:25;;;;;;;0.10;0.10;;;;;;;;;;5072947;28;20236;-77
2022/05/06 14:40:51;;;;;;;0.03;0.03;;;;;;;;;;5060281;28;20469;-79
2022/05/06 14:43:17;;;;;;;0.03;0.03;;;;;;;;;;5074136;28;20308;-76
2022/05/06 14:45:43;;;;;;;0.00;0.00;;;;;;;;;;5058555;28;20550;-76
2022/05/06 14:48:11;;;;;;;0.00;0.00;;;;;;;;;;5075033;28;20271;-76
2022/05/06 14:50:38;;;;;;;0.00;0.00;;;;;;;;;;5058051;28;20270;-78
2022/05/06 14:53:04;;;;;;;0.08;0.08;;;;;;;;;;5075576;28;20284;-78
2022/05/06 14:55:30;;;;;;;0.10;0.10;;;;;;;;;;5057057;28;20545;-77
2022/05/06 14:57:58;;;;;;;0.08;0.08;;;;;;;;;;5076388;28;20475;-77
2022/05/06 15:00:24;;;;;;;0.00;0.00;;;;;;;;;;5055929;28;20202;-76
2022/05/06 15:02:50;;;;;;;0.00;0.00;;;;;;;;;;5076870;28;20507;-78
2022/05/06 15:05:18;;;;;;;0.00;0.00;;;;;;;;;;5055016;28;20387;-76
2022/05/06 15:07:45;;;;;;;0.00;0.00;;;;;;;;;;5077996;28;20538;-77
2022/05/06 15:10:12;;;;;;;0.00;0.00;;;;;;;;;;5053634;28;20216;-77
2022/05/06 15:12:38;;;;;;;0.00;0.00;;;;;;;;;;5078248;28;20213;-76
2022/05/06 15:15:05;;;;;;;0.00;0.00;;;;;;;;;;5061133;28;20375;-76
2022/05/06 15:17:31;;;;;;;0.10;0.10;;;;;;;;;;5078768;28;20220;-77
2022/05/06 15:19:59;;;;;;;0.10;0.10;;;;;;;;;;5063699;28;20206;-76
2022/05/06 15:22:27;;;;;;;0.10;0.10;;;;;;;;;;5068595;28;20275;-77
2022/05/06 15:24:53;;;;;;;0.08;0.08;;;;;;;;;;5063880;28;20213;-78
2022/05/06 15:27:21;;;;;;;0.05;0.05;;;;;;;;;;5068734;28;20248;-77
2022/05/06 15:29:47;;;;;;;0.00;0.00;;;;;;;;;;5063864;28;20214;-77
2022/05/06 15:32:14;;;;;;;0.00;0.00;;;;;;;;;;5050840;28;20246;-78